Lambertville, MI (48144)

10:00 PM EDT on August 29, 2015 (GMT -0400)
Acres & Marshall Area | | Change Station
CLOSE
Current Station
Personal Weather Station
Location: Sylvania, OH
Elevation: 651 ft
Nearby Weather Stations

Elev 651 ft 41.72 °N, 83.68 °W | Updated 7 seconds ago

Mostly Cloudy
Mostly Cloudy
68.2 °F
Feels Like 68.2 °F
N
0.0
Wind Variable Wind from East
Gusts 0.0 mph

Today
High -- | Low -- °F
--% Chance of Precip.
Yesterday
High -- | Low -- °F
Precip. -- in
6:57 AM 8:13 PM
Full, 100% visible
Pressure 30.08 in
Visibility 7.0 miles
Clouds Scattered Clouds 4700 ft
Mostly Cloudy 10000 ft
Dew Point 65 °F
Humidity 89%
Rainfall 0.00 in
Snow Depth Not available.
UV 0 out of 12
Pollen 8.60 out of 12
Air Quality Not available.
Flu Activity Not available.
METAR KDUH 300155Z AUTO 00000KT 7SM SCT047 BKN100 21/19 A3008 RMK AO2 T02100191
Pressure 30.08 in
Visibility 7.0 miles
Clouds Scattered Clouds 4700 ft
Mostly Cloudy 10000 ft
Dew Point 65 °F
Humidity 89%
Rainfall 0.00 in
Snow Depth Not available.
UV 0 out of 12
Pollen 8.60 out of 12
Air Quality Not available.
Flu Activity Not available.
METAR KDUH 300155Z AUTO 00000KT 7SM SCT047 BKN100 21/19 A3008 RMK AO2 T02100191

10-Day Weather Forecast

×

Almanac

Astronomy

Aug. 29, 2015 Rise Set
Actual Time
Civil Twilight
Nautical Twilight
Astronomical Twilight
Moon
Length of Visible Light
Length of Day
Tomorrow will be .
, % of the Moon is Illuminated

Today's Extremes

State Highs State Lows

Community

WunderPhotos

Upload Photos

1,850,847 photos uploaded!

WunderBlogs® & News

Nearby

Air Quality

  Air Quality AQ Index Pollutant
Not available.

Snow Depth

Station Depth Elevation

Earthquake Activity

City Distance Mag. Time & Date
Minimum magnitude displayed is 2.5.

Coastal Water Temperatures

Place Temperature

Stations

Nearby Weather Stations

Station Location Temp. Windchill Dew Point Humidity Wind Precip. Elev Updated Type